UAE2016 EDDF-OMDB
Flight info
| Callsign | UAE2016 |
|---|---|
| Flight time | N/A |
| Altitude | 39000 |
| Route | TOBAK8F/25C TOBAK N858 SWALM T201 TAMEB DCT NEVKO DCT OMELO DCT VOZ DCT PISAM DCT TEKNO DCT KEROP DCT NISVA DCT VANET DCT NIKTI DCT LMO DCT RIKSO DCT YOYYO UG80 BANRO DCT VANZA DCT LAKTO/N0489F410 L560 SILKA M872 BDB Y214 RAPMA DCT KUVSO DCT KATIT DCT PEKEM M628 RIGIL G783 ELUDA/N0506F350 G783 ASPED Q308 KIPOK Q568 IMPED |
| Aircraft | A359/H-SDE2E3GHIJ3J4J5LM1ORWXY/LB1D1 |
Departure
| Time | 2026-05-04 12:52 |
|---|---|
| Airport | Frankfurt Main Airport (EDDF) |
Arrival
| Time | N/A |
|---|---|
| Airport | Dubai International Airport (OMDB) |
| Time | Latitude | Longitude | Altitude | Speed | Heading |
|---|---|---|---|---|---|
| 2026-05-04 12:24 | 50.04701 | 8.56172 | 362 ft | 0 kts | 341° |
| 2026-05-04 12:39 | 50.04698 | 8.56174 | 365 ft | 2 kts | 341° |
| 2026-05-04 12:40 | 50.04680 | 8.56184 | 366 ft | 3 kts | 340° |
| 2026-05-04 12:40 | 50.04668 | 8.56191 | 367 ft | 3 kts | 338° |
| 2026-05-04 12:40 | 50.04654 | 8.56199 | 369 ft | 3 kts | 334° |
| 2026-05-04 12:40 | 50.04637 | 8.56214 | 367 ft | 3 kts | 322° |
| 2026-05-04 12:41 | 50.04624 | 8.56231 | 365 ft | 3 kts | 301° |
| 2026-05-04 12:41 | 50.04618 | 8.56247 | 367 ft | 3 kts | 265° |
| 2026-05-04 12:41 | 50.04618 | 8.56255 | 367 ft | 1 kts | 246° |
| 2026-05-04 12:45 | 50.04610 | 8.56224 | 365 ft | 7 kts | 249° |
| 2026-05-04 12:45 | 50.04581 | 8.56104 | 367 ft | 16 kts | 249° |
| 2026-05-04 12:46 | 50.04504 | 8.55956 | 368 ft | 17 kts | 202° |
| 2026-05-04 12:46 | 50.04397 | 8.55910 | 368 ft | 2 kts | 178° |
| 2026-05-04 12:46 | 50.04379 | 8.55913 | 366 ft | 7 kts | 172° |
| 2026-05-04 12:46 | 50.04311 | 8.55934 | 367 ft | 13 kts | 175° |
| 2026-05-04 12:47 | 50.04301 | 8.55933 | 367 ft | 0 kts | 185° |
| 2026-05-04 12:47 | 50.04297 | 8.55933 | 365 ft | 4 kts | 186° |
| 2026-05-04 12:48 | 50.04235 | 8.55927 | 363 ft | 14 kts | 180° |
| 2026-05-04 12:48 | 50.04125 | 8.55961 | 366 ft | 16 kts | 147° |
| 2026-05-04 12:48 | 50.04095 | 8.56125 | 362 ft | 18 kts | 73° |
| 2026-05-04 12:48 | 50.04144 | 8.56354 | 366 ft | 26 kts | 71° |
| 2026-05-04 12:49 | 50.04213 | 8.56653 | 370 ft | 32 kts | 69° |
| 2026-05-04 12:49 | 50.04299 | 8.57007 | 371 ft | 38 kts | 69° |
| 2026-05-04 12:49 | 50.04399 | 8.57424 | 369 ft | 44 kts | 70° |
| 2026-05-04 12:49 | 50.04510 | 8.57886 | 373 ft | 48 kts | 70° |
| 2026-05-04 12:50 | 50.04602 | 8.58295 | 378 ft | 12 kts | 71° |
| 2026-05-04 12:50 | 50.04627 | 8.58400 | 375 ft | 15 kts | 69° |
| 2026-05-04 12:50 | 50.04628 | 8.58551 | 377 ft | 11 kts | 124° |
| 2026-05-04 12:50 | 50.04568 | 8.58592 | 376 ft | 10 kts | 173° |
| 2026-05-04 12:51 | 50.04487 | 8.58578 | 377 ft | 11 kts | 207° |
| 2026-05-04 12:51 | 50.04461 | 8.58494 | 376 ft | 9 kts | 251° |
| 2026-05-04 12:51 | 50.04451 | 8.58454 | 376 ft | 17 kts | 249° |
| 2026-05-04 12:51 | 50.04313 | 8.57877 | 373 ft | 95 kts | 250° |
| 2026-05-04 12:52 | 50.04003 | 8.56587 | 366 ft | 158 kts | 249° |
| 2026-05-04 12:52 | 50.03611 | 8.54912 | 1052 ft | 161 kts | 249° |
| 2026-05-04 12:52 | 50.03218 | 8.53343 | 1997 ft | 154 kts | 246° |
| 2026-05-04 12:52 | 50.02835 | 8.51811 | 2917 ft | 150 kts | 251° |
| 2026-05-04 12:53 | 50.02672 | 8.50180 | 3598 ft | 159 kts | 269° |
| 2026-05-04 12:53 | 50.02780 | 8.48338 | 3957 ft | 188 kts | 276° |
| 2026-05-04 12:53 | 50.02978 | 8.46068 | 4009 ft | 233 kts | 276° |
| 2026-05-04 12:53 | 50.03220 | 8.43438 | 4265 ft | 256 kts | 279° |
| 2026-05-04 12:54 | 50.04025 | 8.40987 | 5190 ft | 259 kts | 313° |
| 2026-05-04 12:54 | 50.05443 | 8.39240 | 6230 ft | 264 kts | 322° |
| 2026-05-04 12:54 | 50.06969 | 8.37587 | 7095 ft | 271 kts | 322° |
| 2026-05-04 12:54 | 50.08522 | 8.35849 | 7965 ft | 279 kts | 321° |
| 2026-05-04 12:55 | 50.10152 | 8.34214 | 8832 ft | 289 kts | 331° |
| 2026-05-04 12:55 | 50.12104 | 8.33305 | 9768 ft | 299 kts | 353° |
| 2026-05-04 12:55 | 50.14186 | 8.33745 | 10502 ft | 313 kts | 21° |
| 2026-05-04 12:55 | 50.16037 | 8.35713 | 10909 ft | 335 kts | 49° |
| 2026-05-04 12:56 | 50.17390 | 8.38766 | 11328 ft | 353 kts | 64° |
| 2026-05-04 12:56 | 50.18399 | 8.42315 | 11979 ft | 364 kts | 71° |
| 2026-05-04 12:56 | 50.19274 | 8.46074 | 12821 ft | 370 kts | 72° |
| 2026-05-04 12:56 | 50.20143 | 8.49871 | 13703 ft | 375 kts | 71° |
| 2026-05-04 12:57 | 50.21078 | 8.53714 | 14464 ft | 381 kts | 70° |
| 2026-05-04 12:57 | 50.22067 | 8.57512 | 15157 ft | 387 kts | 69° |
| 2026-05-04 12:57 | 50.23133 | 8.61406 | 15879 ft | 393 kts | 68° |
| 2026-05-04 12:57 | 50.24243 | 8.65337 | 16612 ft | 398 kts | 68° |
| 2026-05-04 12:58 | 50.25380 | 8.69314 | 17318 ft | 404 kts | 68° |
| 2026-05-04 12:58 | 50.26534 | 8.73338 | 18057 ft | 409 kts | 68° |
| 2026-05-04 12:58 | 50.27703 | 8.77428 | 18729 ft | 414 kts | 68° |
| 2026-05-04 12:58 | 50.28879 | 8.81565 | 19370 ft | 420 kts | 68° |
| 2026-05-04 12:59 | 50.30070 | 8.85774 | 20035 ft | 425 kts | 68° |
| 2026-05-04 12:59 | 50.31271 | 8.90035 | 20696 ft | 431 kts | 68° |
| 2026-05-04 12:59 | 50.32466 | 8.94285 | 21367 ft | 436 kts | 68° |
| 2026-05-04 12:59 | 50.33694 | 8.98661 | 22030 ft | 441 kts | 68° |
| 2026-05-04 13:00 | 50.34937 | 9.03102 | 22683 ft | 447 kts | 68° |
| 2026-05-04 13:00 | 50.36193 | 9.07594 | 23327 ft | 453 kts | 68° |
| 2026-05-04 13:00 | 50.37459 | 9.12130 | 23926 ft | 458 kts | 68° |
| 2026-05-04 13:00 | 50.38739 | 9.16725 | 24491 ft | 462 kts | 68° |
| 2026-05-04 13:01 | 50.40029 | 9.21362 | 25062 ft | 467 kts | 68° |
| 2026-05-04 13:01 | 50.41329 | 9.26047 | 25638 ft | 471 kts | 68° |
| 2026-05-04 13:01 | 50.42642 | 9.30790 | 26179 ft | 476 kts | 68° |
| 2026-05-04 13:01 | 50.43963 | 9.35569 | 26735 ft | 480 kts | 68° |
| 2026-05-04 13:02 | 50.45276 | 9.40334 | 27322 ft | 484 kts | 68° |
| 2026-05-04 13:02 | 50.46616 | 9.45201 | 27878 ft | 488 kts | 68° |
| 2026-05-04 13:02 | 50.47963 | 9.50106 | 28425 ft | 492 kts | 68° |
| 2026-05-04 13:02 | 50.49321 | 9.55062 | 28944 ft | 496 kts | 68° |
| 2026-05-04 13:03 | 50.50689 | 9.60067 | 29476 ft | 500 kts | 68° |
| 2026-05-04 13:03 | 50.52061 | 9.65097 | 29985 ft | 504 kts | 68° |
| 2026-05-04 13:03 | 50.53446 | 9.70182 | 30395 ft | 508 kts | 68° |
| 2026-05-04 13:03 | 50.54839 | 9.75310 | 30812 ft | 511 kts | 68° |
| 2026-05-04 13:04 | 50.56218 | 9.80397 | 31212 ft | 515 kts | 68° |
| 2026-05-04 13:04 | 50.57620 | 9.85581 | 31589 ft | 518 kts | 68° |
| 2026-05-04 13:04 | 50.59034 | 9.90823 | 31963 ft | 521 kts | 68° |
| 2026-05-04 13:04 | 50.60452 | 9.96088 | 32353 ft | 524 kts | 68° |
| 2026-05-04 13:05 | 50.61877 | 10.01394 | 32703 ft | 526 kts | 68° |
| 2026-05-04 13:05 | 50.63301 | 10.06707 | 33073 ft | 529 kts | 68° |
| 2026-05-04 13:05 | 50.64727 | 10.12038 | 33603 ft | 528 kts | 68° |
| 2026-05-04 13:05 | 50.66150 | 10.17372 | 34103 ft | 526 kts | 68° |
| 2026-05-04 13:06 | 50.67544 | 10.22610 | 34544 ft | 525 kts | 68° |
| 2026-05-04 13:06 | 50.68968 | 10.27972 | 35010 ft | 523 kts | 68° |
| 2026-05-04 13:06 | 50.70350 | 10.33191 | 35437 ft | 521 kts | 68° |
| 2026-05-04 13:06 | 50.71741 | 10.38454 | 35837 ft | 520 kts | 68° |
| 2026-05-04 13:07 | 50.73132 | 10.43727 | 36238 ft | 520 kts | 68° |
| 2026-05-04 13:07 | 50.74515 | 10.48985 | 36589 ft | 519 kts | 68° |
| 2026-05-04 13:07 | 50.75897 | 10.54252 | 36985 ft | 518 kts | 68° |
| 2026-05-04 13:07 | 50.77273 | 10.59506 | 37371 ft | 518 kts | 68° |
| 2026-05-04 13:08 | 50.78645 | 10.64759 | 37730 ft | 517 kts | 68° |
| 2026-05-04 13:08 | 50.79974 | 10.70043 | 38069 ft | 516 kts | 71° |
| 2026-05-04 13:08 | 50.80908 | 10.75501 | 38385 ft | 515 kts | 81° |
| 2026-05-04 13:08 | 50.81526 | 10.81076 | 38713 ft | 513 kts | 82° |
| 2026-05-04 13:09 | 50.82052 | 10.86582 | 38929 ft | 514 kts | 83° |
| 2026-05-04 13:09 | 50.83007 | 10.97764 | 38989 ft | 513 kts | 84° |
| 2026-05-04 13:10 | 50.83936 | 11.08965 | 38987 ft | 514 kts | 84° |
| 2026-05-04 13:10 | 50.84876 | 11.20172 | 38985 ft | 514 kts | 84° |
| 2026-05-04 13:11 | 50.85683 | 11.31409 | 38982 ft | 513 kts | 90° |
| 2026-05-04 13:11 | 50.85834 | 11.42614 | 38975 ft | 513 kts | 91° |
| 2026-05-04 13:12 | 50.85863 | 11.53895 | 38968 ft | 513 kts | 92° |
| 2026-05-04 13:12 | 50.85866 | 11.65129 | 38970 ft | 513 kts | 92° |
| 2026-05-04 13:13 | 50.85867 | 11.76427 | 38973 ft | 513 kts | 92° |
| 2026-05-04 13:13 | 50.85864 | 11.87694 | 38972 ft | 512 kts | 92° |
| 2026-05-04 13:14 | 50.85852 | 11.98974 | 38974 ft | 512 kts | 92° |
| 2026-05-04 13:14 | 50.85829 | 12.10174 | 38980 ft | 512 kts | 92° |
| 2026-05-04 13:15 | 50.85794 | 12.21451 | 38986 ft | 514 kts | 92° |
| 2026-05-04 13:15 | 50.85746 | 12.32880 | 38989 ft | 524 kts | 92° |
| 2026-05-04 13:16 | 50.85689 | 12.44449 | 38991 ft | 527 kts | 92° |
| 2026-05-04 13:16 | 50.85621 | 12.56020 | 38988 ft | 526 kts | 92° |
| 2026-05-04 13:17 | 50.85539 | 12.67542 | 38986 ft | 526 kts | 92° |
| 2026-05-04 13:17 | 50.85447 | 12.79118 | 38984 ft | 526 kts | 92° |
| 2026-05-04 13:18 | 50.85345 | 12.90713 | 38977 ft | 526 kts | 92° |
| 2026-05-04 13:18 | 50.85230 | 13.02231 | 38976 ft | 526 kts | 92° |
| 2026-05-04 13:19 | 50.85103 | 13.13816 | 38974 ft | 526 kts | 92° |